createdAt,value
2022-11-16T00:01:38.531Z,98908.44
2022-11-16T00:04:07.112Z,98907.56
2022-11-16T00:06:35.482Z,98905.06
2022-11-16T00:09:14.860Z,98903.34
2022-11-16T00:11:44.692Z,98908.44
2022-11-16T00:14:12.980Z,98910.97
2022-11-16T00:16:41.679Z,98905.06
2022-11-16T00:19:11.841Z,98896.59
2022-11-16T00:21:40.204Z,98894.03
2022-11-16T00:24:08.658Z,98896.59
2022-11-16T00:26:36.892Z,98905.06
2022-11-16T00:29:06.991Z,98898.31
2022-11-16T00:31:35.419Z,98893.22
2022-11-16T00:34:03.721Z,98879.66
2022-11-16T00:36:32.148Z,98880.47
2022-11-16T00:39:00.540Z,98880.47
2022-11-16T00:41:28.851Z,98882.19
2022-11-16T00:43:57.851Z,98880.47
2022-11-16T00:46:28.121Z,98883.84
2022-11-16T00:48:56.401Z,98878.75
2022-11-16T00:51:24.658Z,98880.44
2022-11-16T00:53:53.203Z,98884.66
2022-11-16T00:56:23.071Z,98878.75
2022-11-16T00:58:51.463Z,98878.75
2022-11-16T01:01:20.104Z,98876.19
2022-11-16T01:03:49.863Z,98867.72
2022-11-16T01:06:18.353Z,98871.97
2022-11-16T01:08:46.748Z,98850.75
2022-11-16T01:11:25.410Z,98849.09
2022-11-16T01:13:54.063Z,98838.06
2022-11-16T01:16:23.574Z,98838.94
2022-11-16T01:18:54.632Z,98838.09
2022-11-16T01:21:24.111Z,98838.94
2022-11-16T01:23:52.463Z,98836.41
2022-11-16T01:26:20.810Z,98830.47
2022-11-16T01:28:49.304Z,98826.22
2022-11-16T01:31:18.131Z,98823.66
2022-11-16T01:33:48.247Z,98821.13
2022-11-16T01:36:27.743Z,98821.09
2022-11-16T01:38:58.676Z,98830.41
2022-11-16T01:41:31.442Z,98821.06
2022-11-16T01:44:03.217Z,98817.69
2022-11-16T01:46:43.749Z,98814.34
2022-11-16T01:49:15.842Z,98813.50
2022-11-16T01:51:48.785Z,98803.34
2022-11-16T01:54:17.561Z,98796.59
2022-11-16T01:56:57.524Z,98801.69
2022-11-16T01:59:33.239Z,98800.03
2022-11-16T02:02:02.304Z,98794.97
2022-11-16T02:04:31.902Z,98796.63
2022-11-16T02:07:08.041Z,98802.56
2022-11-16T02:09:57.890Z,98796.63
2022-11-16T02:12:50.771Z,98789.88
2022-11-16T02:15:26.639Z,98794.94
2022-11-16T02:18:15.021Z,98789.88
2022-11-16T02:21:02.643Z,98790.69
2022-11-16T02:23:52.101Z,98788.16
2022-11-16T02:26:34.781Z,98792.44
2022-11-16T02:29:17.765Z,98782.28
2022-11-16T02:31:51.896Z,98780.59
2022-11-16T02:34:21.700Z,98772.13
2022-11-16T02:36:53.132Z,98764.47
2022-11-16T02:39:24.643Z,98762.78
2022-11-16T02:41:54.559Z,98750.94
2022-11-16T02:44:28.372Z,98750.97
2022-11-16T02:46:59.830Z,98752.69
2022-11-16T02:49:30.271Z,98744.19
2022-11-16T02:52:00.630Z,98744.19
2022-11-16T02:54:29.373Z,98745.03
2022-11-16T02:57:18.878Z,98739.13
2022-11-16T02:59:52.052Z,98731.50
2022-11-16T03:02:25.414Z,98725.56
2022-11-16T03:04:56.401Z,98722.19
2022-11-16T03:07:27.634Z,98719.69
2022-11-16T03:09:58.220Z,98716.31
2022-11-16T03:12:28.789Z,98717.97
2022-11-16T03:15:00.508Z,98712.09
2022-11-16T03:17:30.610Z,98701.94
2022-11-16T03:20:02.718Z,98696.84
2022-11-16T03:22:37.141Z,98695.16
2022-11-16T03:25:06.247Z,98695.22
2022-11-16T03:27:38.525Z,98697.81
2022-11-16T03:30:12.096Z,98701.22
2022-11-16T03:32:47.160Z,98700.38
2022-11-16T03:35:18.412Z,98696.97
2022-11-16T03:37:48.829Z,98695.28
2022-11-16T03:40:18.541Z,98691.06
2022-11-16T03:42:49.719Z,98696.13
2022-11-16T03:45:21.510Z,98680.88
2022-11-16T03:47:52.229Z,98673.25
2022-11-16T03:50:22.370Z,98675.78
2022-11-16T03:52:50.661Z,98673.16
2022-11-16T03:55:20.069Z,98666.41
2022-11-16T03:57:48.598Z,98668.06
2022-11-16T04:00:17.120Z,98663.00
2022-11-16T04:02:47.418Z,98653.69
2022-11-16T04:05:30.608Z,98651.13
2022-11-16T04:08:10.990Z,98657.06
2022-11-16T04:10:48.183Z,98649.44
2022-11-16T04:13:28.094Z,98651.13
2022-11-16T04:16:06.889Z,98651.13
2022-11-16T04:18:46.629Z,98658.75
2022-11-16T04:21:29.729Z,98656.19
2022-11-16T04:24:08.110Z,98655.34
2022-11-16T04:26:53.413Z,98655.34
2022-11-16T04:29:22.234Z,98657.84
2022-11-16T04:32:00.544Z,98651.94
2022-11-16T04:34:40.624Z,98658.69
2022-11-16T04:37:19.914Z,98663.78
2022-11-16T04:39:50.203Z,98651.09
2022-11-16T04:42:22.403Z,98659.53
2022-11-16T04:45:02.265Z,98659.53
2022-11-16T04:47:37.324Z,98645.94
2022-11-16T04:50:07.908Z,98638.38
2022-11-16T04:52:36.303Z,98634.97
2022-11-16T04:55:07.172Z,98635.78
2022-11-16T04:57:35.570Z,98632.44
2022-11-16T05:00:05.828Z,98633.25
2022-11-16T05:02:36.466Z,98630.72
2022-11-16T05:05:04.993Z,98632.41
2022-11-16T05:07:36.300Z,98623.94
2022-11-16T05:10:14.135Z,98624.81
2022-11-16T05:12:43.877Z,98618.88
2022-11-16T05:15:12.544Z,98625.63
2022-11-16T05:17:41.076Z,98621.41
2022-11-16T05:20:25.307Z,98624.78
2022-11-16T05:23:01.044Z,98626.47
2022-11-16T05:25:36.699Z,98619.69
2022-11-16T05:28:10.044Z,98627.28
2022-11-16T05:30:42.305Z,98621.38
2022-11-16T05:33:11.326Z,98616.28
2022-11-16T05:35:42.803Z,98615.44
2022-11-16T05:38:12.611Z,98616.28
2022-11-16T05:40:45.789Z,98616.28
2022-11-16T05:43:14.246Z,98618.81
2022-11-16T05:45:51.799Z,98619.66
2022-11-16T05:48:22.625Z,98610.34
2022-11-16T05:50:51.116Z,98613.72
2022-11-16T05:53:26.617Z,98600.19
2022-11-16T05:55:55.325Z,98603.53
2022-11-16T05:58:25.246Z,98609.47
2022-11-16T06:00:53.933Z,98605.28
2022-11-16T06:03:22.662Z,98600.19
2022-11-16T06:05:56.003Z,98597.63
2022-11-16T06:08:28.540Z,98597.59
2022-11-16T06:11:02.583Z,98597.63
2022-11-16T06:13:31.154Z,98598.47
2022-11-16T06:16:02.447Z,98600.19
2022-11-16T06:18:33.091Z,98595.91
2022-11-16T06:21:02.987Z,98589.94
2022-11-16T06:23:33.536Z,98589.09
2022-11-16T06:26:02.222Z,98589.94
2022-11-16T06:28:32.256Z,98589.94
2022-11-16T06:31:01.243Z,98588.28
2022-11-16T06:33:33.721Z,98585.72
2022-11-16T06:36:08.453Z,98584.03
2022-11-16T06:38:39.387Z,98584.00
2022-11-16T06:41:08.926Z,98580.63
2022-11-16T06:43:42.936Z,98591.66
2022-11-16T06:46:11.877Z,98587.41
2022-11-16T06:48:41.644Z,98581.50
2022-11-16T06:51:14.004Z,98584.88
2022-11-16T06:53:44.121Z,98586.56
2022-11-16T06:56:15.217Z,98580.59
2022-11-16T06:59:09.677Z,98576.41
2022-11-16T07:01:38.281Z,98572.97
2022-11-16T07:04:12.476Z,98578.91
2022-11-16T07:06:45.515Z,98576.38
2022-11-16T07:09:18.386Z,98578.03
2022-11-16T07:11:46.883Z,98575.53
2022-11-16T07:14:17.848Z,98581.47
2022-11-16T07:16:46.384Z,98584.81
2022-11-16T07:19:14.779Z,98572.97
2022-11-16T07:21:45.014Z,98578.03
2022-11-16T07:24:20.006Z,98574.66
2022-11-16T07:26:48.435Z,98577.16
2022-11-16T07:29:21.796Z,98581.41
2022-11-16T07:32:10.207Z,98584.81
2022-11-16T07:34:49.684Z,98581.41
2022-11-16T07:37:19.025Z,98576.31
2022-11-16T07:39:48.686Z,98573.75
2022-11-16T07:42:17.503Z,98572.03
2022-11-16T07:44:53.445Z,98566.13
2022-11-16T07:47:21.817Z,98566.16
2022-11-16T07:49:50.164Z,98567.84
2022-11-16T07:52:22.553Z,98567.81
2022-11-16T07:55:03.624Z,98564.41
2022-11-16T07:57:32.464Z,98559.28
2022-11-16T08:00:05.460Z,98563.50
2022-11-16T08:02:44.535Z,98563.53
2022-11-16T08:05:19.110Z,98558.41
2022-11-16T08:07:50.068Z,98560.91
2022-11-16T08:10:22.432Z,98556.69
2022-11-16T08:12:51.710Z,98550.75
2022-11-16T08:15:21.625Z,98540.59
2022-11-16T08:17:50.045Z,98540.66
2022-11-16T08:20:18.662Z,98536.38
2022-11-16T08:22:49.946Z,98544.84
2022-11-16T08:25:19.696Z,98537.19
2022-11-16T08:27:50.175Z,98543.06
2022-11-16T08:30:22.125Z,98532.88
2022-11-16T08:32:50.336Z,98542.16
2022-11-16T08:35:18.632Z,98530.25
2022-11-16T08:37:47.626Z,98531.94
2022-11-16T08:40:17.466Z,98520.06
2022-11-16T08:42:45.829Z,98518.31
2022-11-16T08:45:15.797Z,98521.66
2022-11-16T08:47:44.114Z,98523.28
2022-11-16T08:50:12.319Z,98516.31
2022-11-16T08:52:41.136Z,98524.72
2022-11-16T08:55:10.461Z,98516.16
2022-11-16T08:57:40.095Z,98513.59
2022-11-16T09:00:12.616Z,98517.75
2022-11-16T09:02:42.270Z,98509.22
2022-11-16T09:05:12.620Z,98510.00
2022-11-16T09:07:43.749Z,98506.53
2022-11-16T09:10:12.137Z,98503.94
2022-11-16T09:12:40.788Z,98495.38
2022-11-16T09:15:09.659Z,98503.78
2022-11-16T09:17:37.879Z,98495.28
2022-11-16T09:20:08.566Z,98491.09
2022-11-16T09:22:36.907Z,98502.19
2022-11-16T09:25:05.418Z,98493.78
2022-11-16T09:27:33.740Z,98495.28
2022-11-16T09:30:01.931Z,98487.53
2022-11-16T09:32:30.348Z,98486.69
2022-11-16T09:34:58.491Z,98487.63
2022-11-16T09:37:28.138Z,98485.06
2022-11-16T09:39:58.122Z,98490.97
2022-11-16T09:42:35.224Z,98493.44
2022-11-16T09:45:06.666Z,98488.25
2022-11-16T09:47:41.600Z,98488.25
2022-11-16T09:50:18.299Z,98493.31
2022-11-16T09:52:50.845Z,98486.50
2022-11-16T09:55:25.238Z,98491.56
2022-11-16T09:57:55.450Z,98472.88
2022-11-16T10:00:24.356Z,98472.88
2022-11-16T10:02:59.842Z,98467.69
2022-11-16T10:05:29.959Z,98466.88
2022-11-16T10:08:04.905Z,98462.69
2022-11-16T10:10:36.638Z,98459.25
2022-11-16T10:13:10.118Z,98459.19
2022-11-16T10:15:44.378Z,98450.63
2022-11-16T10:18:26.360Z,98448.16
2022-11-16T10:21:03.684Z,98450.72
2022-11-16T10:23:40.671Z,98445.56
2022-11-16T10:26:17.127Z,98433.72
2022-11-16T10:28:54.776Z,98437.22
2022-11-16T10:31:27.532Z,98436.41
2022-11-16T10:33:58.330Z,98434.75
2022-11-16T10:36:30.852Z,98433.00
2022-11-16T10:39:02.988Z,98427.88
2022-11-16T10:41:34.898Z,98427.84
2022-11-16T10:44:04.211Z,98425.28
2022-11-16T10:46:35.158Z,98420.19
2022-11-16T10:49:08.120Z,98423.53
2022-11-16T10:51:36.608Z,98423.50
2022-11-16T10:54:13.012Z,98417.53
2022-11-16T10:56:45.618Z,98420.84
2022-11-16T10:59:14.828Z,98423.38
2022-11-16T11:01:44.111Z,98416.53
2022-11-16T11:04:14.328Z,98418.22
2022-11-16T11:06:42.840Z,98420.72
2022-11-16T11:09:17.711Z,98417.28
2022-11-16T11:12:08.247Z,98421.53
2022-11-16T11:14:37.344Z,98424.94
2022-11-16T11:17:12.451Z,98424.94
2022-11-16T11:19:40.811Z,98424.06
2022-11-16T11:22:14.842Z,98419.84
2022-11-16T11:24:49.721Z,98417.28
2022-11-16T11:27:23.540Z,98409.72
2022-11-16T11:29:54.181Z,98417.38
2022-11-16T11:32:24.642Z,98412.22
2022-11-16T11:34:54.788Z,98409.66
2022-11-16T11:37:25.070Z,98412.09
2022-11-16T11:40:08.411Z,98408.66
2022-11-16T11:42:41.608Z,98400.16
2022-11-16T11:45:13.977Z,98395.88
2022-11-16T11:48:02.720Z,98395.88
2022-11-16T11:50:40.731Z,98393.31
2022-11-16T11:53:13.971Z,98400.91
2022-11-16T11:55:43.732Z,98386.47
2022-11-16T11:58:16.941Z,98379.63
2022-11-16T12:00:47.905Z,98381.28
2022-11-16T12:03:34.289Z,98370.22
2022-11-16T12:06:13.713Z,98369.38
2022-11-16T12:08:59.812Z,98368.47
2022-11-16T12:11:34.617Z,98365.03
2022-11-16T12:14:11.093Z,98365.03
2022-11-16T12:16:45.009Z,98365.03
2022-11-16T12:19:28.072Z,98364.13
2022-11-16T12:22:04.101Z,98365.03
2022-11-16T12:24:44.794Z,98365.88
2022-11-16T12:27:20.018Z,98365.81
2022-11-16T12:29:55.062Z,98360.72
2022-11-16T12:32:34.723Z,98360.78
2022-11-16T12:35:13.227Z,98351.38
2022-11-16T12:37:46.749Z,98349.72
2022-11-16T12:40:24.321Z,98350.56
2022-11-16T12:42:57.546Z,98348.81
2022-11-16T12:45:36.680Z,98347.13
2022-11-16T12:48:13.538Z,98341.19
2022-11-16T12:50:46.461Z,98337.84
2022-11-16T12:53:23.710Z,98333.59
2022-11-16T12:55:58.770Z,98331.09
2022-11-16T12:58:36.260Z,98327.63
2022-11-16T13:01:10.544Z,98320.00
2022-11-16T13:03:43.026Z,98329.34
2022-11-16T13:06:15.620Z,98324.22
2022-11-16T13:08:52.179Z,98319.13
2022-11-16T13:11:22.203Z,98309.78
2022-11-16T13:13:54.427Z,98313.19
2022-11-16T13:16:24.283Z,98311.50
2022-11-16T13:18:53.654Z,98302.09
2022-11-16T13:21:29.962Z,98299.59
2022-11-16T13:24:04.142Z,98308.94
2022-11-16T13:26:36.233Z,98297.06
2022-11-16T13:29:12.956Z,98299.59
2022-11-16T13:31:45.185Z,98295.31
2022-11-16T13:34:16.226Z,98298.75
2022-11-16T13:36:45.980Z,98291.94
2022-11-16T13:39:21.467Z,98296.19
2022-11-16T13:41:52.087Z,98292.75
2022-11-16T13:44:27.375Z,98297.91
2022-11-16T13:46:57.823Z,98302.94
2022-11-16T13:49:34.236Z,98304.59
2022-11-16T13:52:21.998Z,98309.69
2022-11-16T13:54:53.497Z,98302.09
2022-11-16T13:57:24.727Z,98298.75
2022-11-16T13:59:57.576Z,98305.59
2022-11-16T14:02:33.765Z,98303.88
2022-11-16T14:05:03.244Z,98304.75
2022-11-16T14:07:40.761Z,98304.75
2022-11-16T14:10:09.197Z,98304.75
2022-11-16T14:12:53.093Z,98304.75
2022-11-16T14:15:23.603Z,98311.56
2022-11-16T14:17:57.826Z,98314.09
2022-11-16T14:20:37.307Z,98314.13
2022-11-16T14:23:20.546Z,98307.41
2022-11-16T14:25:51.599Z,98312.56
2022-11-16T14:28:27.467Z,98310.91
2022-11-16T14:31:09.941Z,98311.81
2022-11-16T14:33:39.094Z,98310.16
2022-11-16T14:36:08.978Z,98309.41
2022-11-16T14:38:38.859Z,98306.91
2022-11-16T14:41:07.699Z,98306.97
2022-11-16T14:43:40.050Z,98310.41
2022-11-16T14:46:15.476Z,98311.34
2022-11-16T14:48:45.629Z,98310.50
2022-11-16T14:51:16.386Z,98305.47
2022-11-16T14:53:48.318Z,98309.69
2022-11-16T14:56:18.035Z,98308.00
2022-11-16T14:58:52.877Z,98302.06
2022-11-16T15:01:25.069Z,98303.81
2022-11-16T15:03:55.826Z,98303.00
2022-11-16T15:06:26.155Z,98296.22
2022-11-16T15:08:55.807Z,98298.81
2022-11-16T15:11:27.304Z,98294.66
2022-11-16T15:13:56.078Z,98287.00
2022-11-16T15:16:25.806Z,98288.75
2022-11-16T15:18:57.703Z,98296.41
2022-11-16T15:21:26.228Z,98288.81
2022-11-16T15:24:23.330Z,98287.16
2022-11-16T15:26:43.016Z,98286.34
2022-11-16T15:29:15.605Z,98282.97
2022-11-16T15:31:45.638Z,98266.06
2022-11-16T15:34:14.319Z,98271.28
2022-11-16T15:36:42.829Z,98273.03
2022-11-16T15:39:15.105Z,98265.41
2022-11-16T15:41:44.331Z,98273.09
2022-11-16T15:44:16.377Z,98268.00
2022-11-16T15:46:48.441Z,98256.94
2022-11-16T15:49:24.231Z,98249.28
2022-11-16T15:51:52.479Z,98250.13
2022-11-16T15:54:25.345Z,98253.63
2022-11-16T15:56:55.481Z,98250.28
2022-11-16T15:59:26.288Z,98246.88
2022-11-16T16:01:56.349Z,98239.28
2022-11-16T16:04:25.272Z,98253.72
2022-11-16T16:06:55.046Z,98262.19
2022-11-16T16:09:25.443Z,98254.59
2022-11-16T16:11:54.837Z,98245.31
2022-11-16T16:14:27.182Z,98247.84
2022-11-16T16:16:58.200Z,98250.50
2022-11-16T16:19:34.028Z,98246.34
2022-11-16T16:22:02.959Z,98241.25
2022-11-16T16:24:38.759Z,98245.50
2022-11-16T16:27:11.478Z,98253.16
2022-11-16T16:29:39.869Z,98254.06
2022-11-16T16:32:13.548Z,98247.34
2022-11-16T16:34:42.869Z,98246.50
2022-11-16T16:37:14.221Z,98238.88
2022-11-16T16:39:42.631Z,98237.22
2022-11-16T16:42:12.151Z,98235.56
2022-11-16T16:44:40.550Z,98241.50
2022-11-16T16:47:10.548Z,98231.41
2022-11-16T16:49:39.089Z,98239.06
2022-11-16T16:52:07.860Z,98241.63
2022-11-16T16:54:36.230Z,98237.44
2022-11-16T16:57:04.607Z,98238.28
2022-11-16T16:59:32.951Z,98234.81
2022-11-16T17:02:01.157Z,98245.84
2022-11-16T17:04:30.954Z,98245.00
2022-11-16T17:06:59.147Z,98251.78
2022-11-16T17:09:27.537Z,98244.13
2022-11-16T17:11:55.751Z,98238.16
2022-11-16T17:14:24.983Z,98238.16
2022-11-16T17:16:53.326Z,98235.63
2022-11-16T17:19:22.118Z,98234.81
2022-11-16T17:21:51.966Z,98239.94
2022-11-16T17:24:20.234Z,98233.97
2022-11-16T17:26:49.255Z,98239.06
2022-11-16T17:29:17.640Z,98236.50
2022-11-16T17:31:48.001Z,98237.34
2022-11-16T17:34:16.536Z,98238.22
2022-11-16T17:36:45.003Z,98234.81
2022-11-16T17:39:16.157Z,98233.19
2022-11-16T17:41:44.598Z,98233.28
2022-11-16T17:44:17.207Z,98229.94
2022-11-16T17:46:48.650Z,98228.31
2022-11-16T17:49:16.889Z,98228.31
2022-11-16T17:51:45.564Z,98230.94
2022-11-16T17:54:15.272Z,98229.22
2022-11-16T17:56:43.731Z,98220.75
2022-11-16T17:59:12.132Z,98228.31
2022-11-16T18:01:40.927Z,98224.97
2022-11-16T18:04:09.426Z,98224.13
2022-11-16T18:06:37.802Z,98219.03
2022-11-16T18:09:06.080Z,98224.16
2022-11-16T18:11:36.069Z,98219.94
2022-11-16T18:14:05.952Z,98219.13
2022-11-16T18:16:34.771Z,98216.63
2022-11-16T18:19:03.521Z,98207.28
2022-11-16T18:21:31.878Z,98206.50
2022-11-16T18:24:00.548Z,98204.75
2022-11-16T18:26:28.733Z,98206.44
2022-11-16T18:28:58.414Z,98208.19
2022-11-16T18:31:26.740Z,98217.50
2022-11-16T18:33:54.930Z,98205.63
2022-11-16T18:36:23.382Z,98208.19
2022-11-16T18:38:51.679Z,98204.84
2022-11-16T18:41:21.187Z,98198.09
2022-11-16T18:43:50.458Z,98195.50
2022-11-16T18:46:20.183Z,98194.69
2022-11-16T18:48:48.461Z,98202.34
2022-11-16T18:51:17.938Z,98192.13
2022-11-16T18:53:46.156Z,98190.44
2022-11-16T18:56:14.421Z,98194.66
2022-11-16T18:58:52.344Z,98199.78
2022-11-16T19:01:24.042Z,98199.06
2022-11-16T19:03:53.168Z,98199.06
2022-11-16T19:06:21.449Z,98197.38
2022-11-16T19:08:56.304Z,98195.75
2022-11-16T19:11:25.654Z,98193.22
2022-11-16T19:13:54.994Z,98201.75
2022-11-16T19:16:24.932Z,98196.63
2022-11-16T19:18:53.187Z,98198.31
2022-11-16T19:21:22.078Z,98196.56
2022-11-16T19:23:50.991Z,98204.97
2022-11-16T19:26:23.632Z,98199.84
2022-11-16T19:28:52.552Z,98196.44
2022-11-16T19:31:22.261Z,98198.13
2022-11-16T19:33:56.286Z,98194.78
2022-11-16T19:36:25.011Z,98196.53
2022-11-16T19:38:53.205Z,98200.81
2022-11-16T19:41:22.748Z,98199.06
2022-11-16T19:43:52.869Z,98200.72
2022-11-16T19:46:21.717Z,98203.31
2022-11-16T19:48:50.742Z,98196.63
2022-11-16T19:51:21.696Z,98198.31
2022-11-16T19:53:50.112Z,98194.94
2022-11-16T19:56:19.181Z,98194.09
2022-11-16T19:58:47.379Z,98201.72
2022-11-16T20:01:17.170Z,98194.09
2022-11-16T20:03:46.097Z,98201.75
2022-11-16T20:06:15.360Z,98200.91
2022-11-16T20:08:49.781Z,98198.41
2022-11-16T20:11:20.777Z,98201.75
2022-11-16T20:13:49.264Z,98195.00
2022-11-16T20:16:18.194Z,98204.34
2022-11-16T20:18:46.711Z,98204.44
2022-11-16T20:21:18.041Z,98207.00
2022-11-16T20:23:47.737Z,98208.72
2022-11-16T20:26:16.158Z,98207.00
2022-11-16T20:28:45.426Z,98212.81
2022-11-16T20:31:14.440Z,98215.28
2022-11-16T20:33:42.946Z,98208.47
2022-11-16T20:36:12.627Z,98212.75
2022-11-16T20:38:41.327Z,98206.88
2022-11-16T20:41:12.308Z,98205.22
2022-11-16T20:43:41.568Z,98197.59
2022-11-16T20:46:10.798Z,98195.00
2022-11-16T20:48:39.849Z,98188.25
2022-11-16T20:51:08.963Z,98190.78
2022-11-16T20:53:38.263Z,98190.84
2022-11-16T20:56:07.760Z,98182.47
2022-11-16T20:58:37.907Z,98181.75
2022-11-16T21:01:07.760Z,98180.03
2022-11-16T21:03:36.325Z,98172.34
2022-11-16T21:06:05.319Z,98168.97
2022-11-16T21:08:33.646Z,98167.22
2022-11-16T21:11:02.334Z,98168.06
2022-11-16T21:13:40.650Z,98163.00
2022-11-16T21:16:12.180Z,98160.44
2022-11-16T21:18:40.906Z,98163.81
2022-11-16T21:21:10.146Z,98163.00
2022-11-16T21:23:39.122Z,98158.78
2022-11-16T21:26:08.007Z,98154.53
2022-11-16T21:28:36.659Z,98152.88
2022-11-16T21:31:06.502Z,98152.00
2022-11-16T21:33:36.445Z,98151.25
2022-11-16T21:36:05.909Z,98144.47
2022-11-16T21:38:35.027Z,98144.47
2022-11-16T21:41:04.539Z,98144.47
2022-11-16T21:43:34.397Z,98139.38
2022-11-16T21:46:03.606Z,98140.25
2022-11-16T21:48:33.525Z,98143.66
2022-11-16T21:51:04.771Z,98147.03
2022-11-16T21:53:33.713Z,98154.66
2022-11-16T21:56:02.849Z,98147.06
2022-11-16T21:58:31.132Z,98152.97
2022-11-16T22:01:00.356Z,98152.91
2022-11-16T22:03:29.537Z,98152.91
2022-11-16T22:06:12.779Z,98155.44
2022-11-16T22:08:43.149Z,98149.44
2022-11-16T22:11:11.837Z,98147.81
2022-11-16T22:13:40.486Z,98146.16
2022-11-16T22:16:09.858Z,98139.41
2022-11-16T22:18:38.299Z,98149.56
2022-11-16T22:21:06.799Z,98152.09
2022-11-16T22:23:35.652Z,98151.28
2022-11-16T22:26:07.058Z,98147.91
2022-11-16T22:28:35.829Z,98144.47
2022-11-16T22:31:05.139Z,98144.44
2022-11-16T22:33:34.352Z,98142.75
2022-11-16T22:36:03.946Z,98147.84
2022-11-16T22:38:32.461Z,98141.09
2022-11-16T22:41:00.687Z,98142.81
2022-11-16T22:43:31.410Z,98133.53
2022-11-16T22:46:00.757Z,98134.41
2022-11-16T22:48:32.716Z,98130.97
2022-11-16T22:51:04.940Z,98125.88
2022-11-16T22:53:33.569Z,98120.81
2022-11-16T22:56:09.038Z,98114.91
2022-11-16T22:58:39.498Z,98107.31
2022-11-16T23:01:08.990Z,98107.28
2022-11-16T23:03:37.863Z,98105.59
2022-11-16T23:06:07.692Z,98103.94
2022-11-16T23:08:37.090Z,98096.31
2022-11-16T23:11:16.649Z,98095.44
2022-11-16T23:13:56.473Z,98101.31
2022-11-16T23:16:24.807Z,98108.91
2022-11-16T23:18:53.031Z,98102.97
2022-11-16T23:21:31.209Z,98108.78
2022-11-16T23:24:09.267Z,98103.69
2022-11-16T23:26:47.481Z,98100.28
2022-11-16T23:29:17.100Z,98103.69
2022-11-16T23:31:45.513Z,98101.19
2022-11-16T23:34:13.832Z,98097.81
2022-11-16T23:36:43.560Z,98100.34
2022-11-16T23:39:11.855Z,98093.59
2022-11-16T23:41:49.552Z,98100.34
2022-11-16T23:44:19.232Z,98095.22
2022-11-16T23:46:47.527Z,98093.53
2022-11-16T23:49:15.979Z,98099.50
2022-11-16T23:51:44.240Z,98111.34
2022-11-16T23:54:12.500Z,98102.03
2022-11-16T23:56:40.919Z,98103.69
2022-11-16T23:59:09.146Z,98103.72
